DRRN

Diori Hamani International Airport

Niamey, Niger
METAR DRRN 162200Z 02003KT CAVOK 24/M03 Q1016 NOSIG
Observed Flight Rules
Dec-16 @ 22:00 UTC (35 minutes ago) Visual Flight Rules
Wind Visibility Clouds
20° at 3 knots 10,000+ meters
  • Clear skies
Temperatures Readings
Current 24°C / 75°F
Dewpoint -3°C / 27°F
Humidity 16%
Altimeter 30" Hg
Pressure 1016 hPa
Elevation 227
METAR DRRN 162200Z 02003KT CAVOK 24/M03 Q1016 NOSIG
Observed Flight Rules
Dec-16 @ 22:00 UTC
(35 minutes ago)
VFR
Wind Visibility
20° at 3 knots 10,000+ meters
Clouds
  • Clear skies
Temperature Dewpoint
24°C / 75°F -3°C / 27°F
Humidity Altimeter Pressure
16% 30" Hg 1016 hPa